createdAt,value
2023-03-27T00:01:52.215Z,8.75
2023-03-27T00:04:26.528Z,8.76
2023-03-27T00:06:59.745Z,8.78
2023-03-27T00:09:33.111Z,8.79
2023-03-27T00:12:06.700Z,8.78
2023-03-27T00:14:40.619Z,8.80
2023-03-27T00:17:13.808Z,8.78
2023-03-27T00:19:47.209Z,8.81
2023-03-27T00:22:20.446Z,8.83
2023-03-27T00:24:53.128Z,8.82
2023-03-27T00:27:26.159Z,8.80
2023-03-27T00:29:59.648Z,8.76
2023-03-27T00:32:34.858Z,8.73
2023-03-27T00:35:10.986Z,8.72
2023-03-27T00:37:44.712Z,8.73
2023-03-27T00:40:20.986Z,8.71
2023-03-27T00:42:56.341Z,8.72
2023-03-27T00:45:33.883Z,8.76
2023-03-27T00:48:08.424Z,8.77
2023-03-27T00:50:44.404Z,8.79
2023-03-27T00:53:22.268Z,8.84
2023-03-27T00:55:59.433Z,8.88
2023-03-27T00:58:36.774Z,8.91
2023-03-27T01:01:12.168Z,8.90
2023-03-27T01:03:49.328Z,8.93
2023-03-27T01:06:22.907Z,8.95
2023-03-27T01:08:57.416Z,8.98
2023-03-27T01:12:14.554Z,8.93
2023-03-27T01:15:13.262Z,8.90
2023-03-27T01:17:55.392Z,8.87
2023-03-27T01:20:45.169Z,8.79
2023-03-27T01:24:06.238Z,8.76
2023-03-27T01:27:18.749Z,8.67
2023-03-27T01:30:14.239Z,8.55
2023-03-27T01:33:17.707Z,8.48
2023-03-27T01:36:08.636Z,8.47
2023-03-27T01:39:37.761Z,8.48
2023-03-27T01:42:33.692Z,8.48
2023-03-27T01:45:41.669Z,8.43
2023-03-27T01:48:21.593Z,8.39
2023-03-27T01:51:01.084Z,8.42
2023-03-27T01:53:51.705Z,8.43
2023-03-27T01:56:34.358Z,8.44
2023-03-27T01:59:18.064Z,8.41
2023-03-27T02:02:01.551Z,8.38
2023-03-27T02:04:59.047Z,8.39
2023-03-27T02:07:37.640Z,8.42
2023-03-27T02:10:15.738Z,8.44
2023-03-27T02:12:57.845Z,8.47
2023-03-27T02:15:36.331Z,8.48
2023-03-27T02:18:13.573Z,8.47
2023-03-27T02:20:47.774Z,8.46
2023-03-27T02:23:22.262Z,8.48
2023-03-27T02:25:56.377Z,8.51
2023-03-27T02:28:55.322Z,8.55
2023-03-27T02:31:45.787Z,8.60
2023-03-27T02:34:51.766Z,8.64
2023-03-27T02:37:44.280Z,8.62
2023-03-27T02:40:40.177Z,8.59
2023-03-27T02:43:22.850Z,8.52
2023-03-27T02:46:15.665Z,8.46
2023-03-27T02:48:51.725Z,8.42
2023-03-27T02:51:30.877Z,8.37
2023-03-27T02:54:18.161Z,8.34
2023-03-27T02:56:56.290Z,8.35
2023-03-27T02:59:35.821Z,8.37
2023-03-27T03:02:12.712Z,8.39
2023-03-27T03:04:53.126Z,8.43
2023-03-27T03:07:27.740Z,8.44
2023-03-27T03:10:01.451Z,8.46
2023-03-27T03:12:36.602Z,8.49
2023-03-27T03:15:11.905Z,8.50
2023-03-27T03:17:45.031Z,8.47
2023-03-27T03:20:19.177Z,8.47
2023-03-27T03:22:53.428Z,8.45
2023-03-27T03:25:26.982Z,8.40
2023-03-27T03:28:01.790Z,8.35
2023-03-27T03:30:38.216Z,8.32
2023-03-27T03:33:14.609Z,8.31
2023-03-27T03:35:52.234Z,8.30
2023-03-27T03:38:38.021Z,8.28
2023-03-27T03:41:10.330Z,8.27
2023-03-27T03:43:43.489Z,8.27
2023-03-27T03:46:17.146Z,8.29
2023-03-27T03:48:51.609Z,8.32
2023-03-27T03:51:24.545Z,8.32
2023-03-27T03:53:57.420Z,8.34
2023-03-27T03:56:31.939Z,8.34
2023-03-27T03:59:05.453Z,8.40
2023-03-27T04:01:40.553Z,8.41
2023-03-27T04:04:14.234Z,8.44
2023-03-27T04:06:56.951Z,8.46
2023-03-27T04:09:31.706Z,8.50
2023-03-27T04:12:10.244Z,8.49
2023-03-27T04:14:55.378Z,8.51
2023-03-27T04:17:47.939Z,8.51
2023-03-27T04:20:21.197Z,8.49
2023-03-27T04:22:55.001Z,8.50
2023-03-27T04:25:29.429Z,8.53
2023-03-27T04:28:03.088Z,8.58
2023-03-27T04:30:39.081Z,8.64
2023-03-27T04:33:30.617Z,8.72
2023-03-27T04:36:24.129Z,8.78
2023-03-27T04:39:02.593Z,8.80
2023-03-27T04:41:38.989Z,8.85
2023-03-27T04:44:13.442Z,8.88
2023-03-27T04:46:50.832Z,8.92
2023-03-27T04:49:23.799Z,8.94
2023-03-27T04:52:04.500Z,8.98
2023-03-27T04:54:38.349Z,9.01
2023-03-27T04:57:12.450Z,9.05
2023-03-27T04:59:45.454Z,9.10
2023-03-27T05:02:36.616Z,9.13
2023-03-27T05:05:12.056Z,9.13
2023-03-27T05:07:50.144Z,9.15
2023-03-27T05:10:25.838Z,9.16
2023-03-27T05:12:59.307Z,9.15
2023-03-27T05:15:34.071Z,9.11
2023-03-27T05:18:09.570Z,9.09
2023-03-27T05:20:46.025Z,9.14
2023-03-27T05:23:20.137Z,9.14
2023-03-27T05:25:59.905Z,9.14
2023-03-27T05:28:29.533Z,9.13
2023-03-27T05:31:02.915Z,9.10
2023-03-27T05:33:38.114Z,9.09
2023-03-27T05:36:15.575Z,9.13
2023-03-27T05:38:49.515Z,9.14
2023-03-27T05:41:27.767Z,9.13
2023-03-27T05:44:01.631Z,9.12
2023-03-27T05:46:39.531Z,9.13
2023-03-27T05:49:14.342Z,9.18
2023-03-27T05:51:47.763Z,9.23
2023-03-27T05:54:22.825Z,9.27
2023-03-27T05:57:00.625Z,9.26
2023-03-27T05:59:34.801Z,9.27
2023-03-27T06:02:11.870Z,9.32
2023-03-27T06:04:48.153Z,9.36
2023-03-27T06:07:22.958Z,9.40
2023-03-27T06:09:56.563Z,9.40
2023-03-27T06:12:42.003Z,9.39
2023-03-27T06:15:17.177Z,9.42
2023-03-27T06:17:55.081Z,9.49
2023-03-27T06:20:28.715Z,9.51
2023-03-27T06:23:03.943Z,9.51
2023-03-27T06:25:39.554Z,9.52
2023-03-27T06:28:13.634Z,9.50
2023-03-27T06:30:48.877Z,9.48
2023-03-27T06:33:30.341Z,9.49
2023-03-27T06:36:06.356Z,9.51
2023-03-27T06:38:41.143Z,9.52
2023-03-27T06:41:15.694Z,9.53
2023-03-27T06:43:53.598Z,9.50
2023-03-27T06:46:45.947Z,9.49
2023-03-27T06:49:26.364Z,9.51
2023-03-27T06:52:00.154Z,9.57
2023-03-27T06:54:35.197Z,9.65
2023-03-27T06:57:08.052Z,9.75
2023-03-27T06:59:53.749Z,9.81
2023-03-27T07:02:28.575Z,9.87
2023-03-27T07:05:20.137Z,9.85
2023-03-27T07:07:54.556Z,9.82
2023-03-27T07:10:29.296Z,9.74
2023-03-27T07:13:03.096Z,9.71
2023-03-27T07:15:36.580Z,9.67
2023-03-27T07:18:09.986Z,9.71
2023-03-27T07:20:45.040Z,9.74
2023-03-27T07:23:20.143Z,9.76
2023-03-27T07:26:02.119Z,9.76
2023-03-27T07:28:40.594Z,9.82
2023-03-27T07:33:53.040Z,9.81
2023-03-27T07:36:29.143Z,9.85
2023-03-27T07:39:04.125Z,9.93
2023-03-27T07:41:37.948Z,10.03
2023-03-27T07:44:28.472Z,10.05
2023-03-27T07:47:03.860Z,10.04
2023-03-27T07:49:38.770Z,10.09
2023-03-27T07:52:13.793Z,10.19
2023-03-27T07:54:49.336Z,10.30
2023-03-27T07:57:24.335Z,10.37
2023-03-27T07:59:57.860Z,10.36
2023-03-27T08:02:33.229Z,10.38
2023-03-27T08:05:07.781Z,10.42
2023-03-27T08:07:42.850Z,10.45
2023-03-27T08:10:17.023Z,10.47
2023-03-27T08:12:55.271Z,10.52
2023-03-27T08:15:30.115Z,10.58
2023-03-27T08:18:04.769Z,10.59
2023-03-27T08:20:37.866Z,10.61
2023-03-27T08:23:10.989Z,10.62
2023-03-27T08:26:02.489Z,10.65
2023-03-27T08:28:38.792Z,10.63
2023-03-27T08:31:18.641Z,10.58
2023-03-27T08:33:51.872Z,10.55
2023-03-27T08:36:27.366Z,10.55
2023-03-27T08:39:02.088Z,10.58
2023-03-27T08:41:43.148Z,10.57
2023-03-27T08:44:21.591Z,10.58
2023-03-27T08:47:20.835Z,10.59
2023-03-27T08:50:09.425Z,10.62
2023-03-27T08:52:54.123Z,10.66
2023-03-27T08:55:41.736Z,10.67
2023-03-27T08:58:22.471Z,10.65
2023-03-27T09:01:33.930Z,10.60
2023-03-27T09:04:56.895Z,10.59
2023-03-27T09:07:43.752Z,10.54
2023-03-27T09:10:53.160Z,10.52
2023-03-27T09:13:49.027Z,10.53
2023-03-27T09:16:37.857Z,10.53
2023-03-27T09:19:34.157Z,10.53
2023-03-27T09:22:20.609Z,10.59
2023-03-27T09:24:58.351Z,10.67
2023-03-27T09:27:52.126Z,10.76
2023-03-27T09:30:34.774Z,10.81
2023-03-27T09:33:11.216Z,10.82
2023-03-27T09:35:46.618Z,10.78
2023-03-27T09:38:34.166Z,10.75
2023-03-27T09:41:15.632Z,10.73
2023-03-27T09:43:56.377Z,10.73
2023-03-27T09:46:29.442Z,10.80
2023-03-27T09:49:14.510Z,10.98
2023-03-27T09:51:57.156Z,11.16
2023-03-27T09:54:54.684Z,11.37
2023-03-27T09:57:41.488Z,11.58
2023-03-27T10:00:34.356Z,11.79
2023-03-27T10:03:19.001Z,11.86
2023-03-27T10:05:58.431Z,11.96
2023-03-27T10:08:43.636Z,12.10
2023-03-27T10:11:22.240Z,12.28
2023-03-27T10:13:57.669Z,12.45
2023-03-27T10:16:31.299Z,12.59
2023-03-27T10:19:06.859Z,12.71
2023-03-27T10:21:43.017Z,12.75
2023-03-27T10:24:45.230Z,12.70
2023-03-27T10:27:23.718Z,12.64
2023-03-27T10:30:35.009Z,12.59
2023-03-27T10:33:10.009Z,12.60
2023-03-27T10:35:47.192Z,12.64
2023-03-27T10:38:25.118Z,12.65
2023-03-27T10:41:27.839Z,12.66
2023-03-27T10:43:57.101Z,12.74
2023-03-27T10:46:31.702Z,12.85
2023-03-27T10:49:43.544Z,12.94
2023-03-27T10:52:25.571Z,12.97
2023-03-27T10:55:31.709Z,12.97
2023-03-27T10:58:12.922Z,12.93
2023-03-27T11:00:51.879Z,12.91
2023-03-27T11:03:36.052Z,12.90
2023-03-27T11:06:15.439Z,12.87
2023-03-27T11:09:16.287Z,12.91
2023-03-27T11:12:01.483Z,12.99
2023-03-27T11:14:52.754Z,13.07
2023-03-27T11:17:32.203Z,13.13
2023-03-27T11:20:11.542Z,13.15
2023-03-27T11:23:21.218Z,13.12
2023-03-27T11:26:10.765Z,13.04
2023-03-27T11:29:08.961Z,12.99
2023-03-27T11:31:47.545Z,13.03
2023-03-27T11:34:52.883Z,13.17
2023-03-27T11:38:03.038Z,13.28
2023-03-27T11:43:27.224Z,13.31
2023-03-27T11:46:29.746Z,13.25
2023-03-27T11:49:23.832Z,13.19
2023-03-27T11:52:42.493Z,13.12
2023-03-27T11:55:38.156Z,13.07
2023-03-27T11:58:32.057Z,12.98
2023-03-27T12:01:32.531Z,12.95
2023-03-27T12:04:24.170Z,13.04
2023-03-27T12:07:26.357Z,13.16
2023-03-27T12:10:06.553Z,13.31
2023-03-27T12:13:19.958Z,13.50
2023-03-27T12:16:07.153Z,13.70
2023-03-27T12:19:21.218Z,13.89
2023-03-27T12:22:24.400Z,14.08
2023-03-27T12:25:29.404Z,14.18
2023-03-27T12:28:23.870Z,14.27
2023-03-27T12:31:13.799Z,14.33
2023-03-27T12:33:57.325Z,14.34
2023-03-27T12:36:38.168Z,14.32
2023-03-27T12:39:29.105Z,14.25
2023-03-27T12:42:16.428Z,14.25
2023-03-27T12:45:22.796Z,14.24
2023-03-27T12:48:19.012Z,14.23
2023-03-27T12:50:57.311Z,14.16
2023-03-27T12:53:39.326Z,14.13
2023-03-27T12:56:23.568Z,14.10
2023-03-27T12:58:58.503Z,14.02
2023-03-27T13:01:52.302Z,13.96
2023-03-27T13:04:52.235Z,13.94
2023-03-27T13:07:41.589Z,14.00
2023-03-27T13:10:38.622Z,14.06
2023-03-27T13:13:48.752Z,14.12
2023-03-27T13:16:59.709Z,14.18
2023-03-27T13:19:45.015Z,14.13
2023-03-27T13:22:36.586Z,14.17
2023-03-27T13:25:25.711Z,14.20
2023-03-27T13:28:30.833Z,14.20
2023-03-27T13:31:09.592Z,14.22
2023-03-27T13:34:32.906Z,14.28
2023-03-27T13:37:18.409Z,14.32
2023-03-27T13:40:04.037Z,14.30
2023-03-27T13:42:41.878Z,14.28
2023-03-27T13:45:32.254Z,14.28
2023-03-27T13:48:43.233Z,14.28
2023-03-27T13:51:47.015Z,14.26
2023-03-27T13:54:39.788Z,14.27
2023-03-27T13:57:51.532Z,14.28
2023-03-27T14:00:49.794Z,14.30
2023-03-27T14:03:45.552Z,14.33
2023-03-27T14:06:38.736Z,14.37
2023-03-27T14:10:03.706Z,14.39
2023-03-27T14:13:02.651Z,14.41
2023-03-27T14:15:53.513Z,14.38
2023-03-27T14:18:44.983Z,14.37
2023-03-27T14:21:35.699Z,14.39
2023-03-27T14:24:09.879Z,14.37
2023-03-27T14:26:46.935Z,14.38
2023-03-27T14:29:21.802Z,14.40
2023-03-27T14:31:57.804Z,14.42
2023-03-27T14:34:43.421Z,14.42
2023-03-27T14:37:35.553Z,14.44
2023-03-27T14:40:26.438Z,14.43
2023-03-27T14:43:03.503Z,14.37
2023-03-27T14:45:40.988Z,14.31
2023-03-27T14:48:38.914Z,14.25
2023-03-27T14:51:16.959Z,14.19
2023-03-27T14:53:53.354Z,14.14
2023-03-27T14:56:40.321Z,14.08
2023-03-27T14:59:28.829Z,14.01
2023-03-27T15:02:11.055Z,13.93
2023-03-27T15:04:44.355Z,13.85
2023-03-27T15:07:26.294Z,13.74
2023-03-27T15:10:15.430Z,13.63
2023-03-27T15:13:08.884Z,13.49
2023-03-27T15:15:47.345Z,13.39
2023-03-27T15:18:33.826Z,13.32
2023-03-27T15:21:10.584Z,13.24
2023-03-27T15:23:50.834Z,13.17
2023-03-27T15:26:27.236Z,13.10
2023-03-27T15:29:34.619Z,13.00
2023-03-27T15:32:17.384Z,12.95
2023-03-27T15:34:58.246Z,12.85
2023-03-27T15:37:32.221Z,12.78
2023-03-27T15:40:24.043Z,12.71
2023-03-27T15:43:07.615Z,12.63
2023-03-27T15:45:48.009Z,12.54
2023-03-27T15:48:28.309Z,12.45
2023-03-27T15:51:10.875Z,12.36
2023-03-27T15:53:47.981Z,12.26
2023-03-27T15:56:24.244Z,12.17
2023-03-27T15:59:06.323Z,12.05
2023-03-27T16:01:52.781Z,11.98
2023-03-27T16:04:44.782Z,11.87
2023-03-27T16:07:42.790Z,11.77
2023-03-27T16:10:18.278Z,11.67
2023-03-27T16:12:55.449Z,11.57
2023-03-27T16:15:42.080Z,11.46
2023-03-27T16:18:37.117Z,11.36
2023-03-27T16:21:14.577Z,11.23
2023-03-27T16:23:47.882Z,11.11
2023-03-27T16:26:27.675Z,11.02
2023-03-27T16:29:03.438Z,10.96
2023-03-27T16:31:36.849Z,10.86
2023-03-27T16:34:23.239Z,10.78
2023-03-27T16:36:50.080Z,10.69
2023-03-27T16:39:23.301Z,10.61
2023-03-27T16:41:56.725Z,10.54
2023-03-27T16:44:30.530Z,10.47
2023-03-27T16:47:04.841Z,10.41
2023-03-27T16:49:38.385Z,10.34
2023-03-27T16:52:11.910Z,10.25
2023-03-27T16:54:45.305Z,10.17
2023-03-27T16:57:19.730Z,10.10
2023-03-27T16:59:53.203Z,10.04
2023-03-27T17:02:29.083Z,9.96
2023-03-27T17:05:01.889Z,9.93
2023-03-27T17:07:35.733Z,9.87
2023-03-27T17:10:11.488Z,9.82
2023-03-27T17:12:45.758Z,9.77
2023-03-27T17:15:19.091Z,9.67
2023-03-27T17:17:53.423Z,9.57
2023-03-27T17:20:26.937Z,9.51
2023-03-27T17:22:59.879Z,9.47
2023-03-27T17:25:33.468Z,9.48
2023-03-27T17:28:07.430Z,9.47
2023-03-27T17:30:56.735Z,9.44
2023-03-27T17:33:18.618Z,9.39
2023-03-27T17:35:52.454Z,9.32
2023-03-27T17:38:25.910Z,9.25
2023-03-27T17:40:59.283Z,9.17
2023-03-27T17:43:33.933Z,9.11
2023-03-27T17:46:08.257Z,9.05
2023-03-27T17:48:42.330Z,8.99
2023-03-27T17:51:15.250Z,8.92
2023-03-27T17:53:48.674Z,8.86
2023-03-27T17:56:22.030Z,8.83
2023-03-27T17:58:56.233Z,8.81
2023-03-27T18:01:29.153Z,8.77
2023-03-27T18:04:02.294Z,8.74
2023-03-27T18:06:37.042Z,8.68
2023-03-27T18:09:09.972Z,8.59
2023-03-27T18:11:43.430Z,8.48
2023-03-27T18:14:16.435Z,8.39
2023-03-27T18:16:50.205Z,8.33
2023-03-27T18:19:24.446Z,8.30
2023-03-27T18:21:57.577Z,8.26
2023-03-27T18:24:30.555Z,8.23
2023-03-27T18:27:03.474Z,8.21
2023-03-27T18:29:36.944Z,8.17
2023-03-27T18:32:10.326Z,8.12
2023-03-27T18:34:43.549Z,8.10
2023-03-27T18:37:16.849Z,8.08
2023-03-27T18:39:49.836Z,8.11
2023-03-27T18:42:22.914Z,8.09
2023-03-27T18:44:57.080Z,8.07
2023-03-27T18:47:30.174Z,8.07
2023-03-27T18:50:04.056Z,8.08
2023-03-27T18:52:37.273Z,8.08
2023-03-27T18:55:13.213Z,8.12
2023-03-27T18:57:46.652Z,8.21
2023-03-27T19:00:20.757Z,8.32
2023-03-27T19:02:53.527Z,8.44
2023-03-27T19:05:27.225Z,8.53
2023-03-27T19:08:00.502Z,8.58
2023-03-27T19:10:38.796Z,8.63
2023-03-27T19:13:26.274Z,8.64
2023-03-27T19:16:17.172Z,8.60
2023-03-27T19:19:08.956Z,8.56
2023-03-27T19:21:47.156Z,8.44
2023-03-27T19:24:25.552Z,8.38
2023-03-27T19:26:59.021Z,8.27
2023-03-27T19:29:32.374Z,8.23
2023-03-27T19:32:05.670Z,8.17
2023-03-27T19:34:42.839Z,8.12
2023-03-27T19:37:14.360Z,8.06
2023-03-27T19:39:47.615Z,8.00
2023-03-27T19:42:21.130Z,7.93
2023-03-27T19:44:54.560Z,7.84
2023-03-27T19:47:27.784Z,7.74
2023-03-27T19:50:01.781Z,7.69
2023-03-27T19:52:51.624Z,7.66
2023-03-27T19:55:22.177Z,7.58
2023-03-27T19:57:55.269Z,7.53
2023-03-27T20:00:30.148Z,7.51
2023-03-27T20:03:04.740Z,7.51
2023-03-27T20:05:42.595Z,7.48
2023-03-27T20:08:16.977Z,7.48
2023-03-27T20:10:50.919Z,7.48
2023-03-27T20:13:25.628Z,7.50
2023-03-27T20:15:59.346Z,7.52
2023-03-27T20:18:32.832Z,7.55
2023-03-27T20:21:05.801Z,7.57
2023-03-27T20:23:40.783Z,7.58
2023-03-27T20:26:15.437Z,7.61
2023-03-27T20:28:52.532Z,7.66
2023-03-27T20:31:27.245Z,7.67
2023-03-27T20:34:00.936Z,7.70
2023-03-27T20:36:35.640Z,7.72
2023-03-27T20:39:10.902Z,7.72
2023-03-27T20:41:45.709Z,7.75
2023-03-27T20:44:18.741Z,7.80
2023-03-27T20:46:53.431Z,7.82
2023-03-27T20:52:04.002Z,7.84
2023-03-27T20:54:37.152Z,7.85
2023-03-27T20:57:10.150Z,7.86
2023-03-27T20:59:45.062Z,7.87
2023-03-27T21:02:21.255Z,7.90
2023-03-27T21:04:54.475Z,7.89
2023-03-27T21:07:27.597Z,7.86
2023-03-27T21:10:02.462Z,7.82
2023-03-27T21:12:36.014Z,7.78
2023-03-27T21:15:11.704Z,7.76
2023-03-27T21:17:46.554Z,7.73
2023-03-27T21:20:19.738Z,7.70
2023-03-27T21:22:53.357Z,7.69
2023-03-27T21:25:26.926Z,7.71
2023-03-27T21:28:01.924Z,7.70
2023-03-27T21:30:47.026Z,7.68
2023-03-27T21:33:10.910Z,7.69
2023-03-27T21:35:46.481Z,7.67
2023-03-27T21:38:20.452Z,7.67
2023-03-27T21:40:53.372Z,7.67
2023-03-27T21:43:26.247Z,7.63
2023-03-27T21:46:03.965Z,7.59
2023-03-27T21:48:37.651Z,7.57
2023-03-27T21:51:10.975Z,7.58
2023-03-27T21:53:43.910Z,7.57
2023-03-27T21:56:17.082Z,7.59
2023-03-27T21:58:50.283Z,7.64
2023-03-27T22:01:26.267Z,7.67
2023-03-27T22:04:01.674Z,7.70
2023-03-27T22:06:34.865Z,7.74
2023-03-27T22:09:08.603Z,7.76
2023-03-27T22:11:41.683Z,7.77
2023-03-27T22:14:15.315Z,7.78
2023-03-27T22:16:48.701Z,7.79
2023-03-27T22:19:22.143Z,7.79
2023-03-27T22:21:55.144Z,7.77
2023-03-27T22:24:28.131Z,7.75
2023-03-27T22:27:01.239Z,7.74
2023-03-27T22:29:34.945Z,7.71
2023-03-27T22:32:08.050Z,7.68
2023-03-27T22:34:40.902Z,7.67
2023-03-27T22:37:14.086Z,7.67
2023-03-27T22:39:47.176Z,7.66
2023-03-27T22:42:20.069Z,7.64
2023-03-27T22:44:53.568Z,7.56
2023-03-27T22:47:27.815Z,7.45
2023-03-27T22:50:02.798Z,7.37
2023-03-27T22:52:35.888Z,7.37
2023-03-27T22:55:10.858Z,7.38
2023-03-27T22:57:43.693Z,7.38
2023-03-27T23:00:18.492Z,7.34
2023-03-27T23:02:52.261Z,7.31
2023-03-27T23:05:25.218Z,7.33
2023-03-27T23:07:58.069Z,7.34
2023-03-27T23:10:31.325Z,7.33
2023-03-27T23:13:04.775Z,7.29
2023-03-27T23:15:39.278Z,7.26
2023-03-27T23:18:12.540Z,7.24
2023-03-27T23:20:46.024Z,7.27
2023-03-27T23:23:19.788Z,7.23
2023-03-27T23:25:52.549Z,7.22
2023-03-27T23:28:25.886Z,7.23
2023-03-27T23:31:02.867Z,7.22
2023-03-27T23:33:40.541Z,7.22
2023-03-27T23:36:25.647Z,7.25
2023-03-27T23:38:58.949Z,7.28
2023-03-27T23:41:31.899Z,7.25
2023-03-27T23:44:05.168Z,7.24
2023-03-27T23:46:38.726Z,7.22
2023-03-27T23:49:14.293Z,7.19
2023-03-27T23:51:47.978Z,7.17
2023-03-27T23:54:21.347Z,7.10
2023-03-27T23:56:54.318Z,7.00
2023-03-27T23:59:27.168Z,6.95
